createdAt,value
2022-12-03T00:01:59.524Z,16.85
2022-12-03T00:04:26.074Z,20.60
2022-12-03T00:06:52.780Z,18.63
2022-12-03T00:09:19.604Z,20.50
2022-12-03T00:11:46.333Z,17.30
2022-12-03T00:14:13.166Z,18.85
2022-12-03T00:16:39.861Z,18.02
2022-12-03T00:19:07.826Z,21.65
2022-12-03T00:21:34.878Z,15.13
2022-12-03T00:24:01.552Z,20.10
2022-12-03T00:26:28.112Z,23.40
2022-12-03T00:28:54.963Z,22.23
2022-12-03T00:31:23.665Z,19.27
2022-12-03T00:33:52.286Z,21.67
2022-12-03T00:36:19.666Z,23.77
2022-12-03T00:38:46.298Z,20.63
2022-12-03T00:41:13.171Z,21.08
2022-12-03T00:43:39.672Z,24.38
2022-12-03T00:46:06.322Z,20.40
2022-12-03T00:48:32.940Z,19.73
2022-12-03T00:50:59.551Z,22.67
2022-12-03T00:53:26.231Z,21.88
2022-12-03T00:55:52.767Z,17.95
2022-12-03T00:58:19.427Z,19.58
2022-12-03T01:00:45.947Z,20.03
2022-12-03T01:03:12.530Z,19.70
2022-12-03T01:05:39.088Z,24.00
2022-12-03T01:08:05.964Z,20.58
2022-12-03T01:10:32.628Z,18.75
2022-12-03T01:12:59.202Z,20.00
2022-12-03T01:15:25.818Z,20.95
2022-12-03T01:17:54.341Z,21.35
2022-12-03T01:20:21.419Z,26.17
2022-12-03T01:22:48.035Z,17.45
2022-12-03T01:25:14.745Z,16.07
2022-12-03T01:27:41.566Z,21.10
2022-12-03T01:30:08.594Z,24.45
2022-12-03T01:32:35.131Z,22.10
2022-12-03T01:35:01.752Z,25.35
2022-12-03T01:37:28.430Z,23.43
2022-12-03T01:39:55.333Z,24.58
2022-12-03T01:42:25.933Z,20.08
2022-12-03T01:44:55.009Z,19.40
2022-12-03T01:47:27.458Z,22.95
2022-12-03T01:49:56.673Z,23.87
2022-12-03T01:52:28.929Z,18.70
2022-12-03T01:54:58.494Z,23.58
2022-12-03T01:57:28.550Z,21.88
2022-12-03T01:59:57.661Z,21.45
2022-12-03T02:02:28.261Z,27.13
2022-12-03T02:04:55.887Z,18.95
2022-12-03T02:07:34.773Z,20.10
2022-12-03T02:10:03.752Z,21.63
2022-12-03T02:12:33.052Z,21.30
2022-12-03T02:15:00.752Z,20.10
2022-12-03T02:17:28.338Z,21.98
2022-12-03T02:19:56.277Z,26.50
2022-12-03T02:22:55.146Z,22.70
2022-12-03T02:25:25.995Z,23.88
2022-12-03T02:27:54.965Z,23.87
2022-12-03T02:30:24.598Z,18.05
2022-12-03T02:32:52.723Z,16.10
2022-12-03T02:35:22.382Z,17.20
2022-12-03T02:37:52.943Z,15.63
2022-12-03T02:40:22.843Z,22.37
2022-12-03T02:42:53.588Z,23.35
2022-12-03T02:45:20.010Z,21.52
2022-12-03T02:48:11.594Z,20.63
2022-12-03T02:50:42.401Z,19.00
2022-12-03T02:53:14.322Z,22.40
2022-12-03T02:55:41.612Z,18.95
2022-12-03T02:58:08.909Z,22.10
2022-12-03T03:00:36.549Z,22.95
2022-12-03T03:03:04.780Z,22.50
2022-12-03T03:05:32.951Z,17.50
2022-12-03T03:08:00.701Z,21.40
2022-12-03T03:10:29.153Z,19.98
2022-12-03T03:12:56.400Z,19.55
2022-12-03T03:15:24.338Z,20.92
2022-12-03T03:17:51.174Z,21.13
2022-12-03T03:20:19.032Z,22.55
2022-12-03T03:22:45.576Z,23.40
2022-12-03T03:25:20.616Z,19.40
2022-12-03T03:27:47.291Z,24.95
2022-12-03T03:30:14.481Z,19.70
2022-12-03T03:32:43.114Z,20.42
2022-12-03T03:35:11.916Z,21.27
2022-12-03T03:37:39.258Z,18.23
2022-12-03T03:40:07.116Z,22.33
2022-12-03T03:42:33.975Z,23.37
2022-12-03T03:45:00.915Z,21.75
2022-12-03T03:47:27.521Z,23.67
2022-12-03T03:49:54.328Z,16.08
2022-12-03T03:52:21.198Z,20.13
2022-12-03T03:54:48.131Z,20.47
2022-12-03T03:57:14.684Z,20.20
2022-12-03T03:59:41.728Z,23.38
2022-12-03T04:02:18.892Z,20.38
2022-12-03T04:04:45.792Z,18.05
2022-12-03T04:07:12.521Z,19.70
2022-12-03T04:09:38.984Z,28.23
2022-12-03T04:12:24.592Z,22.83
2022-12-03T04:14:51.519Z,24.63
2022-12-03T04:17:18.429Z,20.70
2022-12-03T04:19:44.955Z,24.93
2022-12-03T04:22:29.699Z,22.35
2022-12-03T04:25:16.184Z,22.27
2022-12-03T04:28:01.349Z,24.50
2022-12-03T04:30:27.948Z,18.98
2022-12-03T04:33:13.032Z,18.53
2022-12-03T04:35:42.493Z,25.38
2022-12-03T04:38:10.083Z,23.20
2022-12-03T04:40:55.914Z,19.15
2022-12-03T04:43:22.595Z,23.83
2022-12-03T04:45:49.612Z,23.27
2022-12-03T04:48:16.165Z,22.58
2022-12-03T04:50:43.256Z,23.02
2022-12-03T04:53:09.860Z,24.17
2022-12-03T04:55:36.413Z,19.42
2022-12-03T04:58:02.944Z,25.30
2022-12-03T05:00:32.245Z,20.20
2022-12-03T05:02:58.911Z,20.75
2022-12-03T05:05:25.608Z,23.25
2022-12-03T05:07:52.155Z,20.33
2022-12-03T05:10:18.895Z,23.93
2022-12-03T05:12:45.380Z,23.50
2022-12-03T05:15:11.974Z,21.42
2022-12-03T05:17:38.453Z,20.77
2022-12-03T05:20:24.091Z,24.35
2022-12-03T05:22:50.586Z,23.07
2022-12-03T05:25:17.229Z,25.50
2022-12-03T05:27:43.676Z,24.10
2022-12-03T05:30:10.490Z,26.40
2022-12-03T05:32:36.994Z,24.48
2022-12-03T05:35:03.760Z,23.97
2022-12-03T05:37:30.323Z,25.63
2022-12-03T05:39:56.836Z,24.08
2022-12-03T05:42:41.894Z,29.80
2022-12-03T05:45:08.880Z,30.13
2022-12-03T05:47:35.446Z,31.00
2022-12-03T05:50:01.963Z,30.38
2022-12-03T05:52:28.762Z,33.10
2022-12-03T05:54:55.635Z,31.77
2022-12-03T05:57:22.312Z,32.53
2022-12-03T05:59:49.185Z,27.53
2022-12-03T06:02:15.867Z,32.00
2022-12-03T06:04:42.593Z,30.20
2022-12-03T06:07:13.771Z,27.30
2022-12-03T06:09:40.815Z,35.97
2022-12-03T06:12:08.910Z,29.70
2022-12-03T06:14:35.908Z,32.10
2022-12-03T06:17:02.799Z,23.33
2022-12-03T06:19:29.361Z,27.50
2022-12-03T06:21:56.025Z,26.50
2022-12-03T06:24:22.534Z,32.63
2022-12-03T06:26:49.135Z,34.10
2022-12-03T06:29:15.721Z,24.98
2022-12-03T06:31:42.256Z,26.40
2022-12-03T06:34:08.913Z,27.23
2022-12-03T06:36:35.415Z,29.60
2022-12-03T06:39:02.299Z,24.50
2022-12-03T06:41:28.815Z,25.05
2022-12-03T06:43:55.263Z,22.33
2022-12-03T06:46:21.773Z,27.88
2022-12-03T06:48:48.415Z,30.20
2022-12-03T06:51:14.963Z,23.25
2022-12-03T06:53:41.429Z,27.95
2022-12-03T06:56:08.058Z,29.02
2022-12-03T06:58:34.818Z,27.90
2022-12-03T07:01:01.405Z,29.40
2022-12-03T07:03:28.009Z,25.48
2022-12-03T07:05:54.519Z,24.52
2022-12-03T07:08:20.992Z,21.55
2022-12-03T07:10:47.578Z,19.63
2022-12-03T07:13:14.063Z,25.07
2022-12-03T07:15:40.862Z,21.55
2022-12-03T07:18:07.466Z,22.83
2022-12-03T07:20:33.953Z,25.40
2022-12-03T07:23:00.438Z,24.70
2022-12-03T07:25:27.173Z,19.73
2022-12-03T07:27:53.621Z,21.27
2022-12-03T07:30:20.377Z,27.92
2022-12-03T07:32:46.900Z,22.25
2022-12-03T07:35:13.482Z,30.20
2022-12-03T07:37:40.139Z,26.37
2022-12-03T07:40:07.365Z,22.48
2022-12-03T07:42:33.942Z,24.00
2022-12-03T07:45:00.768Z,28.33
2022-12-03T07:47:27.342Z,26.05
2022-12-03T07:49:53.889Z,20.37
2022-12-03T07:52:20.564Z,23.83
2022-12-03T07:54:47.244Z,27.27
2022-12-03T07:57:13.818Z,29.92
2022-12-03T07:59:40.329Z,23.45
2022-12-03T08:02:06.929Z,26.23
2022-12-03T08:04:33.563Z,30.27
2022-12-03T08:07:00.309Z,26.13
2022-12-03T08:09:26.981Z,25.48
2022-12-03T08:11:53.956Z,26.13
2022-12-03T08:14:20.925Z,27.80
2022-12-03T08:16:48.095Z,23.50
2022-12-03T08:19:16.505Z,27.08
2022-12-03T08:21:43.765Z,26.05
2022-12-03T08:24:21.081Z,20.77
2022-12-03T08:26:49.665Z,23.30
2022-12-03T08:29:18.796Z,29.02
2022-12-03T08:31:55.180Z,24.50
2022-12-03T08:34:26.767Z,20.75
2022-12-03T08:37:01.575Z,25.42
2022-12-03T08:39:40.594Z,28.30
2022-12-03T08:42:28.984Z,29.95
2022-12-03T08:44:56.168Z,23.75
2022-12-03T08:47:24.385Z,24.92
2022-12-03T08:50:03.385Z,26.67
2022-12-03T08:52:34.751Z,29.03
2022-12-03T08:55:29.427Z,28.05
2022-12-03T08:57:55.975Z,28.63
2022-12-03T09:00:24.559Z,23.95
2022-12-03T09:02:54.290Z,24.30
2022-12-03T09:05:23.584Z,25.17
2022-12-03T09:07:50.283Z,33.10
2022-12-03T09:10:20.681Z,24.63
2022-12-03T09:12:47.613Z,31.23
2022-12-03T09:15:14.224Z,31.52
2022-12-03T09:17:40.884Z,28.47
2022-12-03T09:20:09.224Z,29.08
2022-12-03T09:22:35.957Z,30.85
2022-12-03T09:25:02.719Z,33.50
2022-12-03T09:27:29.538Z,30.02
2022-12-03T09:29:57.744Z,29.30
2022-12-03T09:32:24.607Z,30.02
2022-12-03T09:34:51.794Z,29.42
2022-12-03T09:37:18.730Z,30.08
2022-12-03T09:39:45.314Z,28.10
2022-12-03T09:42:12.311Z,28.60
2022-12-03T09:44:39.244Z,31.17
2022-12-03T09:47:06.993Z,29.13
2022-12-03T09:49:37.646Z,34.17
2022-12-03T09:52:06.376Z,27.63
2022-12-03T09:54:36.475Z,24.20
2022-12-03T09:57:04.411Z,23.10
2022-12-03T09:59:33.455Z,25.33
2022-12-03T10:02:00.653Z,30.25
2022-12-03T10:04:28.581Z,22.13
2022-12-03T10:07:06.209Z,29.83
2022-12-03T10:09:35.145Z,25.95
2022-12-03T10:12:01.901Z,21.02
2022-12-03T10:14:28.995Z,30.83
2022-12-03T10:16:55.993Z,26.50
2022-12-03T10:19:26.107Z,32.63
2022-12-03T10:21:52.915Z,27.45
2022-12-03T10:24:24.163Z,25.40
2022-12-03T10:26:52.964Z,24.67
2022-12-03T10:29:29.913Z,27.35
2022-12-03T10:32:10.517Z,27.30
2022-12-03T10:34:39.703Z,32.63
2022-12-03T10:37:14.302Z,31.65
2022-12-03T10:40:09.364Z,30.17
2022-12-03T10:42:39.829Z,36.58
2022-12-03T10:45:19.339Z,28.80
2022-12-03T10:48:06.402Z,34.67
2022-12-03T10:50:34.877Z,29.17
2022-12-03T10:53:02.104Z,33.40
2022-12-03T10:55:34.309Z,30.00
2022-12-03T10:58:02.307Z,33.33
2022-12-03T11:00:29.177Z,30.75
2022-12-03T11:02:57.119Z,30.15
2022-12-03T11:05:27.567Z,27.02
2022-12-03T11:07:54.762Z,32.65
2022-12-03T11:10:21.913Z,31.23
2022-12-03T11:13:33.079Z,31.60
2022-12-03T11:16:05.307Z,33.95
2022-12-03T11:18:34.731Z,27.80
2022-12-03T11:21:02.522Z,25.90
2022-12-03T11:23:44.245Z,31.53
2022-12-03T11:26:18.404Z,30.05
2022-12-03T11:28:45.719Z,24.88
2022-12-03T11:31:42.023Z,33.13
2022-12-03T11:34:20.735Z,20.83
2022-12-03T11:37:12.069Z,27.27
2022-12-03T11:39:44.785Z,24.98
2022-12-03T11:42:29.869Z,16.48
2022-12-03T11:45:05.765Z,19.85
2022-12-03T11:47:41.825Z,15.25
2022-12-03T11:50:21.557Z,17.00
2022-12-03T11:52:54.521Z,18.70
2022-12-03T11:55:34.781Z,14.77
2022-12-03T11:58:22.530Z,16.55
2022-12-03T12:00:53.842Z,17.35
2022-12-03T12:03:52.901Z,18.53
2022-12-03T12:06:21.209Z,15.55
2022-12-03T12:09:00.078Z,18.40
2022-12-03T12:11:34.578Z,19.02
2022-12-03T12:14:19.265Z,20.77
2022-12-03T12:16:50.988Z,21.07
2022-12-03T12:19:33.879Z,16.88
2022-12-03T12:22:28.185Z,19.88
2022-12-03T12:25:04.038Z,18.13
2022-12-03T12:27:49.492Z,25.20
2022-12-03T12:30:19.179Z,22.10
2022-12-03T12:32:48.412Z,20.75
2022-12-03T12:35:26.496Z,21.15
2022-12-03T12:38:03.283Z,21.73
2022-12-03T12:40:34.883Z,24.85
2022-12-03T12:43:11.775Z,16.77
2022-12-03T12:45:43.569Z,23.85
2022-12-03T12:48:10.207Z,22.10
2022-12-03T12:50:38.573Z,19.08
2022-12-03T12:53:12.776Z,19.20
2022-12-03T12:55:40.128Z,23.37
2022-12-03T12:58:17.354Z,24.52
2022-12-03T13:00:50.980Z,19.17
2022-12-03T13:03:19.363Z,24.70
2022-12-03T13:05:49.267Z,29.40
2022-12-03T13:08:23.504Z,29.07
2022-12-03T13:10:52.597Z,25.77
2022-12-03T13:13:21.712Z,23.05
2022-12-03T13:15:50.639Z,25.05
2022-12-03T13:18:39.898Z,27.40
2022-12-03T13:21:32.874Z,28.03
2022-12-03T13:24:00.986Z,30.48
2022-12-03T13:26:39.421Z,36.60
2022-12-03T13:29:16.549Z,34.95
2022-12-03T13:31:51.184Z,37.85
2022-12-03T13:34:23.416Z,38.83
2022-12-03T13:36:57.633Z,37.97
2022-12-03T13:39:30.697Z,40.08
2022-12-03T13:42:21.977Z,35.75
2022-12-03T13:44:50.057Z,30.42
2022-12-03T13:47:22.752Z,40.43
2022-12-03T13:49:57.936Z,38.85
2022-12-03T13:52:29.064Z,35.42
2022-12-03T13:54:57.145Z,39.83
2022-12-03T13:57:23.953Z,39.88
2022-12-03T13:59:50.760Z,44.60
2022-12-03T14:02:17.998Z,44.67
2022-12-03T14:04:46.466Z,37.92
2022-12-03T14:07:13.142Z,30.40
2022-12-03T14:09:39.733Z,43.45
2022-12-03T14:12:25.339Z,33.13
2022-12-03T14:14:52.036Z,33.15
2022-12-03T14:17:18.562Z,36.63
2022-12-03T14:19:45.247Z,38.20
2022-12-03T14:22:12.025Z,34.53
2022-12-03T14:24:40.201Z,30.80
2022-12-03T14:27:06.820Z,30.10
2022-12-03T14:29:33.576Z,34.35
2022-12-03T14:32:00.155Z,30.25
2022-12-03T14:34:27.256Z,30.77
2022-12-03T14:36:53.784Z,29.27
2022-12-03T14:39:23.359Z,25.27
2022-12-03T14:42:08.515Z,28.42
2022-12-03T14:44:37.181Z,29.73
2022-12-03T14:47:03.811Z,22.58
2022-12-03T14:49:30.379Z,25.93
2022-12-03T14:51:56.925Z,28.70
2022-12-03T14:54:23.854Z,28.60
2022-12-03T14:56:50.515Z,27.75
2022-12-03T14:59:17.366Z,24.35
2022-12-03T15:01:43.960Z,32.70
2022-12-03T15:04:10.768Z,27.60
2022-12-03T15:06:37.280Z,22.48
2022-12-03T15:09:04.512Z,25.85
2022-12-03T15:11:31.260Z,24.33
2022-12-03T15:13:58.159Z,28.27
2022-12-03T15:16:25.067Z,25.20
2022-12-03T15:18:52.086Z,23.73
2022-12-03T15:21:18.610Z,26.42
2022-12-03T15:23:45.261Z,23.67
2022-12-03T15:26:11.762Z,26.23
2022-12-03T15:28:38.416Z,22.70
2022-12-03T15:31:05.186Z,25.23
2022-12-03T15:33:31.835Z,29.70
2022-12-03T15:35:58.429Z,25.67
2022-12-03T15:38:24.983Z,30.73
2022-12-03T15:40:51.584Z,37.78
2022-12-03T15:43:18.229Z,25.25
2022-12-03T15:45:45.012Z,31.15
2022-12-03T15:48:13.445Z,42.92
2022-12-03T15:50:40.593Z,36.70
2022-12-03T15:53:07.335Z,38.70
2022-12-03T15:55:33.842Z,37.25
2022-12-03T15:58:00.428Z,32.08
2022-12-03T16:00:26.936Z,40.80
2022-12-03T16:02:53.634Z,37.33
2022-12-03T16:05:20.253Z,41.58
2022-12-03T16:07:46.878Z,37.78
2022-12-03T16:10:13.722Z,37.78
2022-12-03T16:12:40.417Z,42.10
2022-12-03T16:15:07.281Z,42.80
2022-12-03T16:17:33.972Z,38.97
2022-12-03T16:20:00.672Z,45.28
2022-12-03T16:22:27.184Z,33.83
2022-12-03T16:24:53.791Z,38.35
2022-12-03T16:27:25.297Z,47.70
2022-12-03T16:29:52.660Z,47.80
2022-12-03T16:32:19.605Z,44.17
2022-12-03T16:34:46.263Z,35.25
2022-12-03T16:37:12.842Z,40.95
2022-12-03T16:39:39.491Z,37.97
2022-12-03T16:42:10.203Z,43.60
2022-12-03T16:44:58.928Z,32.40
2022-12-03T16:47:30.618Z,29.83
2022-12-03T16:50:00.495Z,34.42
2022-12-03T16:52:29.567Z,43.67
2022-12-03T16:54:56.506Z,41.20
2022-12-03T16:57:23.041Z,36.90
2022-12-03T16:59:49.888Z,38.17
2022-12-03T17:02:16.600Z,41.88
2022-12-03T17:04:43.227Z,34.13
2022-12-03T17:07:09.922Z,35.13
2022-12-03T17:09:36.486Z,37.20
2022-12-03T17:12:03.117Z,42.53
2022-12-03T17:14:33.289Z,37.72
2022-12-03T17:17:00.175Z,38.70
2022-12-03T17:19:26.756Z,41.08
2022-12-03T17:21:54.235Z,43.78
2022-12-03T17:24:21.428Z,40.53
2022-12-03T17:26:48.007Z,39.95
2022-12-03T17:29:14.641Z,39.90
2022-12-03T17:31:42.477Z,45.80
2022-12-03T17:34:09.528Z,35.38
2022-12-03T17:36:36.203Z,42.40
2022-12-03T17:39:02.906Z,39.88
2022-12-03T17:41:29.437Z,43.93
2022-12-03T17:43:56.072Z,35.78
2022-12-03T17:46:22.642Z,36.38
2022-12-03T17:48:49.302Z,37.92
2022-12-03T17:51:16.005Z,44.83
2022-12-03T17:53:42.644Z,39.27
2022-12-03T17:56:09.585Z,36.13
2022-12-03T17:58:36.072Z,33.05
2022-12-03T18:01:03.436Z,39.20
2022-12-03T18:03:30.849Z,41.35
2022-12-03T18:05:57.418Z,38.83
2022-12-03T18:08:24.202Z,33.63
2022-12-03T18:10:50.889Z,42.35
2022-12-03T18:13:17.563Z,42.03
2022-12-03T18:15:44.110Z,41.65
2022-12-03T18:18:10.945Z,38.37
2022-12-03T18:20:38.054Z,38.28
2022-12-03T18:23:04.991Z,42.60
2022-12-03T18:25:31.714Z,49.22
2022-12-03T18:27:58.460Z,42.90
2022-12-03T18:30:25.233Z,41.23
2022-12-03T18:32:51.909Z,45.72
2022-12-03T18:35:18.540Z,39.15
2022-12-03T18:37:45.155Z,40.50
2022-12-03T18:40:22.478Z,40.97
2022-12-03T18:42:49.211Z,38.50
2022-12-03T18:45:16.426Z,41.85
2022-12-03T18:47:43.715Z,36.78
2022-12-03T18:52:52.681Z,41.28
2022-12-03T18:55:21.822Z,33.40
2022-12-03T18:57:48.403Z,34.13
2022-12-03T19:00:15.376Z,37.03
2022-12-03T19:05:29.090Z,39.95
2022-12-03T19:07:56.616Z,35.87
2022-12-03T19:10:23.928Z,33.83
2022-12-03T19:12:50.580Z,44.58
2022-12-03T19:15:17.569Z,41.42
2022-12-03T19:17:49.474Z,39.03
2022-12-03T19:20:16.146Z,38.27
2022-12-03T19:22:42.724Z,52.25
2022-12-03T19:25:09.506Z,33.95
2022-12-03T19:27:36.215Z,41.45
2022-12-03T19:30:03.095Z,38.08
2022-12-03T19:32:29.631Z,37.60
2022-12-03T19:34:57.252Z,34.53
2022-12-03T19:37:23.801Z,38.50
2022-12-03T19:39:53.509Z,33.00
2022-12-03T19:42:20.529Z,37.20
2022-12-03T19:44:47.108Z,33.90
2022-12-03T19:47:13.857Z,29.05
2022-12-03T19:49:40.449Z,30.63
2022-12-03T19:52:06.992Z,35.67
2022-12-03T19:54:33.696Z,44.40
2022-12-03T19:57:00.486Z,41.63
2022-12-03T19:59:27.134Z,36.08
2022-12-03T20:01:53.726Z,35.92
2022-12-03T20:04:20.481Z,35.67
2022-12-03T20:06:47.732Z,38.45
2022-12-03T20:09:17.903Z,32.83
2022-12-03T20:11:46.070Z,32.75
2022-12-03T20:14:15.614Z,38.13
2022-12-03T20:16:42.883Z,30.52
2022-12-03T20:19:12.473Z,28.30
2022-12-03T20:21:40.248Z,33.77
2022-12-03T20:24:08.363Z,37.17
2022-12-03T20:26:34.876Z,34.20
2022-12-03T20:29:01.800Z,34.38
2022-12-03T20:31:31.237Z,30.83
2022-12-03T20:34:02.928Z,31.17
2022-12-03T20:36:31.052Z,32.17
2022-12-03T20:39:00.286Z,36.35
2022-12-03T20:41:26.874Z,33.85
2022-12-03T20:43:54.466Z,36.53
2022-12-03T20:46:25.878Z,37.47
2022-12-03T20:48:54.277Z,30.10
2022-12-03T20:51:23.537Z,34.67
2022-12-03T20:53:50.343Z,28.45
2022-12-03T20:56:20.301Z,35.05
2022-12-03T20:58:49.005Z,34.60
2022-12-03T21:01:22.263Z,34.90
2022-12-03T21:03:49.647Z,37.33
2022-12-03T21:06:17.298Z,29.23
2022-12-03T21:08:44.858Z,38.80
2022-12-03T21:11:16.041Z,29.43
2022-12-03T21:13:45.427Z,36.47
2022-12-03T21:16:15.849Z,28.10
2022-12-03T21:18:43.424Z,32.42
2022-12-03T21:21:12.204Z,30.65
2022-12-03T21:23:38.911Z,35.07
2022-12-03T21:26:08.434Z,33.85
2022-12-03T21:28:35.773Z,33.42
2022-12-03T21:31:06.173Z,27.02
2022-12-03T21:33:33.518Z,34.95
2022-12-03T21:36:01.116Z,32.43
2022-12-03T21:38:30.265Z,36.67
2022-12-03T21:40:57.524Z,31.33
2022-12-03T21:43:25.259Z,32.42
2022-12-03T21:45:53.984Z,35.22
2022-12-03T21:48:21.062Z,32.53
2022-12-03T21:51:00.650Z,37.75
2022-12-03T21:53:28.180Z,32.60
2022-12-03T21:55:54.858Z,38.38
2022-12-03T21:58:21.455Z,33.50
2022-12-03T22:00:48.065Z,32.43
2022-12-03T22:03:14.779Z,35.75
2022-12-03T22:05:41.367Z,40.58
2022-12-03T22:08:08.109Z,37.28
2022-12-03T22:10:35.434Z,36.00
2022-12-03T22:13:02.264Z,32.07
2022-12-03T22:15:28.808Z,29.95
2022-12-03T22:17:55.345Z,38.47
2022-12-03T22:20:22.261Z,30.75
2022-12-03T22:22:48.833Z,36.53
2022-12-03T22:25:15.864Z,35.80
2022-12-03T22:27:42.599Z,32.70
2022-12-03T22:30:09.534Z,38.60
2022-12-03T22:32:36.114Z,27.48
2022-12-03T22:35:02.851Z,39.03
2022-12-03T22:37:32.390Z,30.87
2022-12-03T22:39:59.106Z,34.45
2022-12-03T22:42:25.689Z,29.80
2022-12-03T22:44:52.160Z,37.00
2022-12-03T22:47:18.707Z,43.28
2022-12-03T22:49:45.212Z,39.10
2022-12-03T22:52:11.731Z,39.13
2022-12-03T22:54:38.317Z,36.22
2022-12-03T22:57:04.767Z,37.42
2022-12-03T22:59:31.406Z,42.95
2022-12-03T23:01:58.064Z,42.43
2022-12-03T23:04:24.674Z,34.90
2022-12-03T23:06:51.103Z,37.40
2022-12-03T23:09:17.880Z,33.92
2022-12-03T23:11:45.597Z,37.78
2022-12-03T23:14:13.343Z,38.53
2022-12-03T23:16:40.658Z,35.92
2022-12-03T23:19:07.148Z,39.78
2022-12-03T23:21:34.740Z,34.08
2022-12-03T23:24:02.873Z,36.25
2022-12-03T23:26:29.673Z,39.00
2022-12-03T23:28:56.721Z,35.80
2022-12-03T23:31:29.874Z,40.22
2022-12-03T23:33:57.568Z,37.15
2022-12-03T23:36:26.206Z,34.15
2022-12-03T23:38:53.604Z,43.30
2022-12-03T23:41:22.584Z,37.55
2022-12-03T23:43:49.586Z,49.63
2022-12-03T23:46:20.154Z,42.40
2022-12-03T23:48:46.863Z,38.10
2022-12-03T23:51:20.287Z,36.90
2022-12-03T23:53:47.555Z,37.28
2022-12-03T23:56:17.483Z,45.85
2022-12-03T23:58:44.621Z,42.42
